sensor_id;sensor_type;location;lat;lon;timestamp;temperature;humidity
76607;DHT22;65498;50.916;4.698;2023-05-07T00:00:13;22.30;57.60
76607;DHT22;65498;50.916;4.698;2023-05-07T00:02:42;22.30;57.70
76607;DHT22;65498;50.916;4.698;2023-05-07T00:05:11;22.30;57.60
76607;DHT22;65498;50.916;4.698;2023-05-07T00:07:38;22.30;57.60
76607;DHT22;65498;50.916;4.698;2023-05-07T00:10:07;22.30;57.70
76607;DHT22;65498;50.916;4.698;2023-05-07T00:12:35;22.30;57.60
76607;DHT22;65498;50.916;4.698;2023-05-07T00:15:03;22.30;57.70
76607;DHT22;65498;50.916;4.698;2023-05-07T00:17:31;22.30;57.60
76607;DHT22;65498;50.916;4.698;2023-05-07T00:19:58;22.30;57.60
76607;DHT22;65498;50.916;4.698;2023-05-07T00:22:26;22.30;57.70
76607;DHT22;65498;50.916;4.698;2023-05-07T00:24:53;22.30;57.80
76607;DHT22;65498;50.916;4.698;2023-05-07T00:27:21;22.20;57.80
76607;DHT22;65498;50.916;4.698;2023-05-07T00:29:49;22.30;57.50
76607;DHT22;65498;50.916;4.698;2023-05-07T00:32:16;22.30;57.60
76607;DHT22;65498;50.916;4.698;2023-05-07T00:34:44;22.30;57.60
76607;DHT22;65498;50.916;4.698;2023-05-07T00:37:12;22.20;57.70
76607;DHT22;65498;50.916;4.698;2023-05-07T00:39:39;22.20;57.80
76607;DHT22;65498;50.916;4.698;2023-05-07T00:42:07;22.20;57.70
76607;DHT22;65498;50.916;4.698;2023-05-07T00:44:34;22.20;57.60
76607;DHT22;65498;50.916;4.698;2023-05-07T00:47:04;22.20;57.70
76607;DHT22;65498;50.916;4.698;2023-05-07T00:49:40;22.20;57.70
76607;DHT22;65498;50.916;4.698;2023-05-07T00:52:11;22.20;57.80
76607;DHT22;65498;50.916;4.698;2023-05-07T00:54:39;22.20;57.80
76607;DHT22;65498;50.916;4.698;2023-05-07T00:57:07;22.10;57.90
76607;DHT22;65498;50.916;4.698;2023-05-07T00:59:36;22.20;58.00
76607;DHT22;65498;50.916;4.698;2023-05-07T01:02:03;22.20;57.80
76607;DHT22;65498;50.916;4.698;2023-05-07T01:04:31;22.10;57.80
76607;DHT22;65498;50.916;4.698;2023-05-07T01:06:59;22.20;57.80
76607;DHT22;65498;50.916;4.698;2023-05-07T01:09:28;22.20;57.90
76607;DHT22;65498;50.916;4.698;2023-05-07T01:11:56;22.10;57.80
76607;DHT22;65498;50.916;4.698;2023-05-07T01:14:24;22.10;57.90
76607;DHT22;65498;50.916;4.698;2023-05-07T01:16:53;22.10;57.90
76607;DHT22;65498;50.916;4.698;2023-05-07T01:19:21;22.10;58.00
76607;DHT22;65498;50.916;4.698;2023-05-07T01:21:49;22.10;58.00
76607;DHT22;65498;50.916;4.698;2023-05-07T01:24:18;22.10;57.90
76607;DHT22;65498;50.916;4.698;2023-05-07T01:26:46;22.10;57.70
76607;DHT22;65498;50.916;4.698;2023-05-07T01:29:13;22.10;57.90
76607;DHT22;65498;50.916;4.698;2023-05-07T01:31:42;22.10;57.90
76607;DHT22;65498;50.916;4.698;2023-05-07T01:34:12;22.10;58.00
76607;DHT22;65498;50.916;4.698;2023-05-07T01:36:40;22.10;57.90
76607;DHT22;65498;50.916;4.698;2023-05-07T01:39:09;22.00;57.90
76607;DHT22;65498;50.916;4.698;2023-05-07T01:41:37;22.10;57.90
76607;DHT22;65498;50.916;4.698;2023-05-07T01:44:06;22.10;57.90
76607;DHT22;65498;50.916;4.698;2023-05-07T01:46:34;22.10;57.90
76607;DHT22;65498;50.916;4.698;2023-05-07T01:49:02;22.10;58.00
76607;DHT22;65498;50.916;4.698;2023-05-07T01:51:31;22.00;57.90
76607;DHT22;65498;50.916;4.698;2023-05-07T01:53:59;22.10;57.80
76607;DHT22;65498;50.916;4.698;2023-05-07T01:56:26;22.10;57.70
76607;DHT22;65498;50.916;4.698;2023-05-07T01:58:54;22.00;57.90
76607;DHT22;65498;50.916;4.698;2023-05-07T02:01:22;22.10;57.90
76607;DHT22;65498;50.916;4.698;2023-05-07T02:03:50;22.10;57.80
76607;DHT22;65498;50.916;4.698;2023-05-07T02:06:17;22.00;57.80
76607;DHT22;65498;50.916;4.698;2023-05-07T02:08:46;22.00;57.90
76607;DHT22;65498;50.916;4.698;2023-05-07T02:11:13;22.00;57.80
76607;DHT22;65498;50.916;4.698;2023-05-07T02:13:41;22.00;58.00
76607;DHT22;65498;50.916;4.698;2023-05-07T02:16:09;22.00;58.00
76607;DHT22;65498;50.916;4.698;2023-05-07T02:18:37;22.00;58.00
76607;DHT22;65498;50.916;4.698;2023-05-07T02:21:04;22.00;57.70
76607;DHT22;65498;50.916;4.698;2023-05-07T02:23:32;22.00;57.90
76607;DHT22;65498;50.916;4.698;2023-05-07T02:25:59;22.00;57.90
76607;DHT22;65498;50.916;4.698;2023-05-07T02:28:27;22.00;57.60
76607;DHT22;65498;50.916;4.698;2023-05-07T02:30:54;22.10;57.70
76607;DHT22;65498;50.916;4.698;2023-05-07T02:33:22;22.00;57.60
76607;DHT22;65498;50.916;4.698;2023-05-07T02:35:49;22.00;57.50
76607;DHT22;65498;50.916;4.698;2023-05-07T02:38:18;22.00;57.70
76607;DHT22;65498;50.916;4.698;2023-05-07T02:40:45;22.00;57.80
76607;DHT22;65498;50.916;4.698;2023-05-07T02:43:13;22.00;57.80
76607;DHT22;65498;50.916;4.698;2023-05-07T02:45:41;22.00;57.60
76607;DHT22;65498;50.916;4.698;2023-05-07T02:48:09;22.00;57.70
76607;DHT22;65498;50.916;4.698;2023-05-07T02:50:37;22.00;57.70
76607;DHT22;65498;50.916;4.698;2023-05-07T02:53:04;22.00;57.80
76607;DHT22;65498;50.916;4.698;2023-05-07T02:55:32;21.90;58.10
76607;DHT22;65498;50.916;4.698;2023-05-07T02:57:59;21.90;57.30
76607;DHT22;65498;50.916;4.698;2023-05-07T03:00:27;22.00;57.90
76607;DHT22;65498;50.916;4.698;2023-05-07T03:02:54;21.90;57.80
76607;DHT22;65498;50.916;4.698;2023-05-07T03:05:22;21.90;57.70
76607;DHT22;65498;50.916;4.698;2023-05-07T03:07:49;21.90;57.90
76607;DHT22;65498;50.916;4.698;2023-05-07T03:10:17;21.90;57.90
76607;DHT22;65498;50.916;4.698;2023-05-07T03:12:45;21.90;58.00
76607;DHT22;65498;50.916;4.698;2023-05-07T03:15:12;21.90;58.00
76607;DHT22;65498;50.916;4.698;2023-05-07T03:17:40;21.90;57.90
76607;DHT22;65498;50.916;4.698;2023-05-07T03:20:08;21.90;57.80
76607;DHT22;65498;50.916;4.698;2023-05-07T03:22:36;22.00;57.90
76607;DHT22;65498;50.916;4.698;2023-05-07T03:25:03;21.90;57.70
76607;DHT22;65498;50.916;4.698;2023-05-07T03:27:31;21.90;57.70
76607;DHT22;65498;50.916;4.698;2023-05-07T03:30:00;21.90;57.90
76607;DHT22;65498;50.916;4.698;2023-05-07T03:32:28;21.90;57.80
76607;DHT22;65498;50.916;4.698;2023-05-07T03:34:55;21.90;57.90
76607;DHT22;65498;50.916;4.698;2023-05-07T03:37:23;21.90;57.90
76607;DHT22;65498;50.916;4.698;2023-05-07T03:39:50;21.90;57.90
76607;DHT22;65498;50.916;4.698;2023-05-07T03:42:18;21.90;58.00
76607;DHT22;65498;50.916;4.698;2023-05-07T03:44:45;21.90;57.90
76607;DHT22;65498;50.916;4.698;2023-05-07T03:47:13;21.90;58.50
76607;DHT22;65498;50.916;4.698;2023-05-07T03:49:40;21.90;57.80
76607;DHT22;65498;50.916;4.698;2023-05-07T03:52:08;21.90;57.80
76607;DHT22;65498;50.916;4.698;2023-05-07T03:54:36;21.90;58.00
76607;DHT22;65498;50.916;4.698;2023-05-07T03:57:03;21.80;58.00
76607;DHT22;65498;50.916;4.698;2023-05-07T03:59:31;21.90;57.90
76607;DHT22;65498;50.916;4.698;2023-05-07T04:01:58;21.90;57.80
76607;DHT22;65498;50.916;4.698;2023-05-07T04:04:26;21.90;57.90
76607;DHT22;65498;50.916;4.698;2023-05-07T04:06:53;21.80;57.80
76607;DHT22;65498;50.916;4.698;2023-05-07T04:09:21;21.80;57.90
76607;DHT22;65498;50.916;4.698;2023-05-07T04:11:48;21.90;57.90
76607;DHT22;65498;50.916;4.698;2023-05-07T04:14:16;21.90;57.90
76607;DHT22;65498;50.916;4.698;2023-05-07T04:16:43;21.90;57.80
76607;DHT22;65498;50.916;4.698;2023-05-07T04:19:11;21.90;57.90
76607;DHT22;65498;50.916;4.698;2023-05-07T04:21:38;21.80;57.80
76607;DHT22;65498;50.916;4.698;2023-05-07T04:24:06;21.90;57.90
76607;DHT22;65498;50.916;4.698;2023-05-07T04:26:34;21.80;58.00
76607;DHT22;65498;50.916;4.698;2023-05-07T04:29:01;21.80;57.90
76607;DHT22;65498;50.916;4.698;2023-05-07T04:31:30;21.90;57.90
76607;DHT22;65498;50.916;4.698;2023-05-07T04:33:58;21.80;57.80
76607;DHT22;65498;50.916;4.698;2023-05-07T04:36:25;21.80;58.00
76607;DHT22;65498;50.916;4.698;2023-05-07T04:38:55;21.80;58.00
76607;DHT22;65498;50.916;4.698;2023-05-07T04:41:22;21.80;57.90
76607;DHT22;65498;50.916;4.698;2023-05-07T04:43:50;21.80;57.80
76607;DHT22;65498;50.916;4.698;2023-05-07T04:46:18;21.80;58.20
76607;DHT22;65498;50.916;4.698;2023-05-07T04:48:45;21.80;57.90
76607;DHT22;65498;50.916;4.698;2023-05-07T04:51:13;21.80;58.00
76607;DHT22;65498;50.916;4.698;2023-05-07T04:53:40;21.80;57.90
76607;DHT22;65498;50.916;4.698;2023-05-07T04:56:09;21.80;58.00
76607;DHT22;65498;50.916;4.698;2023-05-07T04:58:37;21.80;57.90
76607;DHT22;65498;50.916;4.698;2023-05-07T05:01:04;21.80;57.90
76607;DHT22;65498;50.916;4.698;2023-05-07T05:03:32;21.90;57.80
76607;DHT22;65498;50.916;4.698;2023-05-07T05:05:59;21.90;57.80
76607;DHT22;65498;50.916;4.698;2023-05-07T05:08:27;21.90;57.60
76607;DHT22;65498;50.916;4.698;2023-05-07T05:10:54;21.90;57.70
76607;DHT22;65498;50.916;4.698;2023-05-07T05:13:22;21.80;57.70
76607;DHT22;65498;50.916;4.698;2023-05-07T05:15:50;21.80;57.70
76607;DHT22;65498;50.916;4.698;2023-05-07T05:18:17;21.90;58.00
76607;DHT22;65498;50.916;4.698;2023-05-07T05:20:45;21.90;57.60
76607;DHT22;65498;50.916;4.698;2023-05-07T05:23:12;21.80;57.60
76607;DHT22;65498;50.916;4.698;2023-05-07T05:25:40;21.90;58.00
76607;DHT22;65498;50.916;4.698;2023-05-07T05:28:07;21.90;57.90
76607;DHT22;65498;50.916;4.698;2023-05-07T05:30:35;21.80;57.90
76607;DHT22;65498;50.916;4.698;2023-05-07T05:33:03;21.80;57.90
76607;DHT22;65498;50.916;4.698;2023-05-07T05:35:30;21.80;57.90
76607;DHT22;65498;50.916;4.698;2023-05-07T05:37:58;21.80;58.40
76607;DHT22;65498;50.916;4.698;2023-05-07T05:40:26;21.80;58.00
76607;DHT22;65498;50.916;4.698;2023-05-07T05:42:53;21.80;57.90
76607;DHT22;65498;50.916;4.698;2023-05-07T05:45:21;21.90;57.70
76607;DHT22;65498;50.916;4.698;2023-05-07T05:47:49;21.80;57.70
76607;DHT22;65498;50.916;4.698;2023-05-07T05:50:16;21.80;58.00
76607;DHT22;65498;50.916;4.698;2023-05-07T05:52:44;21.80;58.00
76607;DHT22;65498;50.916;4.698;2023-05-07T05:55:11;21.80;57.90
76607;DHT22;65498;50.916;4.698;2023-05-07T05:57:39;21.80;57.90
76607;DHT22;65498;50.916;4.698;2023-05-07T06:00:07;21.80;57.70
76607;DHT22;65498;50.916;4.698;2023-05-07T06:02:35;21.80;57.80
76607;DHT22;65498;50.916;4.698;2023-05-07T06:05:03;21.80;58.10
76607;DHT22;65498;50.916;4.698;2023-05-07T06:07:31;21.80;57.90
76607;DHT22;65498;50.916;4.698;2023-05-07T06:09:58;21.80;58.00
76607;DHT22;65498;50.916;4.698;2023-05-07T06:12:26;21.80;58.10
76607;DHT22;65498;50.916;4.698;2023-05-07T06:14:54;21.90;58.10
76607;DHT22;65498;50.916;4.698;2023-05-07T06:17:21;21.90;58.20
76607;DHT22;65498;50.916;4.698;2023-05-07T06:19:49;21.90;58.10
76607;DHT22;65498;50.916;4.698;2023-05-07T06:22:16;21.80;58.10
76607;DHT22;65498;50.916;4.698;2023-05-07T06:24:44;21.90;58.00
76607;DHT22;65498;50.916;4.698;2023-05-07T06:27:11;21.80;58.00
76607;DHT22;65498;50.916;4.698;2023-05-07T06:29:39;21.80;58.00
76607;DHT22;65498;50.916;4.698;2023-05-07T06:32:11;21.90;58.10
76607;DHT22;65498;50.916;4.698;2023-05-07T06:34:39;21.80;58.00
76607;DHT22;65498;50.916;4.698;2023-05-07T06:37:07;21.90;58.10
76607;DHT22;65498;50.916;4.698;2023-05-07T06:39:35;21.90;58.30
76607;DHT22;65498;50.916;4.698;2023-05-07T06:42:02;21.90;58.20
76607;DHT22;65498;50.916;4.698;2023-05-07T06:44:31;21.90;58.30
76607;DHT22;65498;50.916;4.698;2023-05-07T06:46:59;21.90;58.50
76607;DHT22;65498;50.916;4.698;2023-05-07T06:49:26;21.90;58.60
76607;DHT22;65498;50.916;4.698;2023-05-07T06:51:54;21.90;58.50
76607;DHT22;65498;50.916;4.698;2023-05-07T06:54:22;21.90;58.70
76607;DHT22;65498;50.916;4.698;2023-05-07T06:56:50;21.90;58.90
76607;DHT22;65498;50.916;4.698;2023-05-07T06:59:17;21.80;58.80
76607;DHT22;65498;50.916;4.698;2023-05-07T07:01:45;21.90;59.00
76607;DHT22;65498;50.916;4.698;2023-05-07T07:04:13;21.80;58.90
76607;DHT22;65498;50.916;4.698;2023-05-07T07:06:41;21.90;59.10
76607;DHT22;65498;50.916;4.698;2023-05-07T07:09:08;21.90;58.90
76607;DHT22;65498;50.916;4.698;2023-05-07T07:11:36;21.80;58.80
76607;DHT22;65498;50.916;4.698;2023-05-07T07:14:04;21.80;58.90
76607;DHT22;65498;50.916;4.698;2023-05-07T07:16:32;21.80;59.30
76607;DHT22;65498;50.916;4.698;2023-05-07T07:18:59;21.80;59.30
76607;DHT22;65498;50.916;4.698;2023-05-07T07:21:27;21.80;59.50
76607;DHT22;65498;50.916;4.698;2023-05-07T07:23:54;21.80;59.50
76607;DHT22;65498;50.916;4.698;2023-05-07T07:26:22;21.80;59.70
76607;DHT22;65498;50.916;4.698;2023-05-07T07:28:49;21.90;60.40
76607;DHT22;65498;50.916;4.698;2023-05-07T07:31:17;21.80;60.10
76607;DHT22;65498;50.916;4.698;2023-05-07T07:33:44;21.90;60.10
76607;DHT22;65498;50.916;4.698;2023-05-07T07:36:12;21.90;60.30
76607;DHT22;65498;50.916;4.698;2023-05-07T07:38:39;21.90;60.30
76607;DHT22;65498;50.916;4.698;2023-05-07T07:41:08;21.90;60.00
76607;DHT22;65498;50.916;4.698;2023-05-07T07:43:36;21.90;60.10
76607;DHT22;65498;50.916;4.698;2023-05-07T07:46:03;21.90;60.00
76607;DHT22;65498;50.916;4.698;2023-05-07T07:48:31;21.90;60.10
76607;DHT22;65498;50.916;4.698;2023-05-07T07:50:59;21.90;59.60
76607;DHT22;65498;50.916;4.698;2023-05-07T07:53:26;21.90;59.10
76607;DHT22;65498;50.916;4.698;2023-05-07T07:55:54;21.90;59.90
76607;DHT22;65498;50.916;4.698;2023-05-07T07:58:22;21.90;60.50
76607;DHT22;65498;50.916;4.698;2023-05-07T08:00:51;21.90;60.40
76607;DHT22;65498;50.916;4.698;2023-05-07T08:03:18;21.90;60.70
76607;DHT22;65498;50.916;4.698;2023-05-07T08:05:46;21.90;60.80
76607;DHT22;65498;50.916;4.698;2023-05-07T08:08:13;22.00;60.20
76607;DHT22;65498;50.916;4.698;2023-05-07T08:10:41;21.90;60.10
76607;DHT22;65498;50.916;4.698;2023-05-07T08:13:09;21.90;60.60
76607;DHT22;65498;50.916;4.698;2023-05-07T08:15:36;21.90;60.80
76607;DHT22;65498;50.916;4.698;2023-05-07T08:18:04;21.90;61.00
76607;DHT22;65498;50.916;4.698;2023-05-07T08:20:31;21.90;60.20
76607;DHT22;65498;50.916;4.698;2023-05-07T08:23:00;21.90;60.40
76607;DHT22;65498;50.916;4.698;2023-05-07T08:25:27;21.90;60.50
76607;DHT22;65498;50.916;4.698;2023-05-07T08:27:55;21.90;60.40
76607;DHT22;65498;50.916;4.698;2023-05-07T08:30:22;21.90;60.60
76607;DHT22;65498;50.916;4.698;2023-05-07T08:32:50;21.90;60.40
76607;DHT22;65498;50.916;4.698;2023-05-07T08:35:17;21.90;60.30
76607;DHT22;65498;50.916;4.698;2023-05-07T08:37:45;22.00;60.40
76607;DHT22;65498;50.916;4.698;2023-05-07T08:40:12;22.00;60.40
76607;DHT22;65498;50.916;4.698;2023-05-07T08:42:40;22.00;60.30
76607;DHT22;65498;50.916;4.698;2023-05-07T08:45:10;22.00;60.10
76607;DHT22;65498;50.916;4.698;2023-05-07T08:47:46;22.00;60.30
76607;DHT22;65498;50.916;4.698;2023-05-07T08:50:13;22.00;60.10
76607;DHT22;65498;50.916;4.698;2023-05-07T08:52:42;21.90;60.10
76607;DHT22;65498;50.916;4.698;2023-05-07T08:55:10;21.90;60.20
76607;DHT22;65498;50.916;4.698;2023-05-07T08:57:37;21.90;60.90
76607;DHT22;65498;50.916;4.698;2023-05-07T09:00:06;22.00;61.00
76607;DHT22;65498;50.916;4.698;2023-05-07T09:02:35;21.90;61.30
76607;DHT22;65498;50.916;4.698;2023-05-07T09:05:04;21.90;61.20
76607;DHT22;65498;50.916;4.698;2023-05-07T09:07:32;22.00;60.50
76607;DHT22;65498;50.916;4.698;2023-05-07T09:10:01;22.00;59.70
76607;DHT22;65498;50.916;4.698;2023-05-07T09:12:29;22.00;60.10
76607;DHT22;65498;50.916;4.698;2023-05-07T09:14:57;22.00;60.30
76607;DHT22;65498;50.916;4.698;2023-05-07T09:17:26;22.00;60.40
76607;DHT22;65498;50.916;4.698;2023-05-07T09:19:54;22.00;60.30
76607;DHT22;65498;50.916;4.698;2023-05-07T09:22:21;22.10;60.40
76607;DHT22;65498;50.916;4.698;2023-05-07T09:24:50;22.10;60.50
76607;DHT22;65498;50.916;4.698;2023-05-07T09:27:18;22.10;60.40
76607;DHT22;65498;50.916;4.698;2023-05-07T09:29:46;22.10;60.50
76607;DHT22;65498;50.916;4.698;2023-05-07T09:32:15;22.10;60.60
76607;DHT22;65498;50.916;4.698;2023-05-07T09:34:43;22.20;60.60
76607;DHT22;65498;50.916;4.698;2023-05-07T09:37:12;22.20;60.70
76607;DHT22;65498;50.916;4.698;2023-05-07T09:42:28;22.20;60.90
76607;DHT22;65498;50.916;4.698;2023-05-07T09:44:56;22.20;60.90
76607;DHT22;65498;50.916;4.698;2023-05-07T09:47:24;22.20;61.00
76607;DHT22;65498;50.916;4.698;2023-05-07T09:49:55;22.20;61.00
76607;DHT22;65498;50.916;4.698;2023-05-07T09:52:24;22.20;61.10
76607;DHT22;65498;50.916;4.698;2023-05-07T09:54:55;22.20;61.10
76607;DHT22;65498;50.916;4.698;2023-05-07T09:57:26;22.20;61.10
76607;DHT22;65498;50.916;4.698;2023-05-07T09:59:56;22.20;61.10
76607;DHT22;65498;50.916;4.698;2023-05-07T10:02:26;22.20;61.10
76607;DHT22;65498;50.916;4.698;2023-05-07T10:04:55;22.20;61.10
76607;DHT22;65498;50.916;4.698;2023-05-07T10:07:24;22.20;61.10
76607;DHT22;65498;50.916;4.698;2023-05-07T10:09:52;22.20;61.00
76607;DHT22;65498;50.916;4.698;2023-05-07T10:12:21;22.20;61.00
76607;DHT22;65498;50.916;4.698;2023-05-07T10:14:50;22.20;60.80
76607;DHT22;65498;50.916;4.698;2023-05-07T10:17:19;22.20;60.90
76607;DHT22;65498;50.916;4.698;2023-05-07T10:19:47;22.20;60.90
76607;DHT22;65498;50.916;4.698;2023-05-07T10:22:17;22.20;61.20
76607;DHT22;65498;50.916;4.698;2023-05-07T10:24:45;22.10;61.20
76607;DHT22;65498;50.916;4.698;2023-05-07T10:27:16;22.20;63.70
76607;DHT22;65498;50.916;4.698;2023-05-07T10:32:47;22.10;63.60
76607;DHT22;65498;50.916;4.698;2023-05-07T10:35:22;22.10;63.60
76607;DHT22;65498;50.916;4.698;2023-05-07T10:37:51;22.10;67.10
76607;DHT22;65498;50.916;4.698;2023-05-07T10:40:20;22.10;67.50
76607;DHT22;65498;50.916;4.698;2023-05-07T10:43:02;22.10;66.00
76607;DHT22;65498;50.916;4.698;2023-05-07T10:45:31;22.10;65.10
76607;DHT22;65498;50.916;4.698;2023-05-07T10:48:16;22.10;65.00
76607;DHT22;65498;50.916;4.698;2023-05-07T10:50:45;22.20;65.20
76607;DHT22;65498;50.916;4.698;2023-05-07T10:53:20;22.20;65.20
76607;DHT22;65498;50.916;4.698;2023-05-07T10:58:40;22.20;65.40
76607;DHT22;65498;50.916;4.698;2023-05-07T11:01:07;22.20;65.50
76607;DHT22;65498;50.916;4.698;2023-05-07T11:03:36;22.20;65.60
76607;DHT22;65498;50.916;4.698;2023-05-07T11:06:17;22.20;65.60
76607;DHT22;65498;50.916;4.698;2023-05-07T11:08:57;22.20;65.70
76607;DHT22;65498;50.916;4.698;2023-05-07T11:11:49;22.20;65.70
76607;DHT22;65498;50.916;4.698;2023-05-07T11:17:11;22.20;65.90
76607;DHT22;65498;50.916;4.698;2023-05-07T11:19:52;22.20;65.90
76607;DHT22;65498;50.916;4.698;2023-05-07T11:25:05;22.10;65.60
76607;DHT22;65498;50.916;4.698;2023-05-07T11:27:33;22.20;65.10
76607;DHT22;65498;50.916;4.698;2023-05-07T11:30:01;22.20;65.20
76607;DHT22;65498;50.916;4.698;2023-05-07T11:32:30;22.20;65.10
76607;DHT22;65498;50.916;4.698;2023-05-07T11:34:59;22.20;65.20
76607;DHT22;65498;50.916;4.698;2023-05-07T11:37:28;22.20;65.60
76607;DHT22;65498;50.916;4.698;2023-05-07T11:40:04;22.20;65.90
76607;DHT22;65498;50.916;4.698;2023-05-07T11:42:34;22.20;65.40
76607;DHT22;65498;50.916;4.698;2023-05-07T11:45:06;22.20;65.10
76607;DHT22;65498;50.916;4.698;2023-05-07T11:47:34;22.20;65.10
76607;DHT22;65498;50.916;4.698;2023-05-07T11:50:04;22.10;65.00
76607;DHT22;65498;50.916;4.698;2023-05-07T11:52:33;22.10;65.10
76607;DHT22;65498;50.916;4.698;2023-05-07T11:55:01;22.10;64.90
76607;DHT22;65498;50.916;4.698;2023-05-07T11:57:32;22.10;65.10
76607;DHT22;65498;50.916;4.698;2023-05-07T12:00:02;22.10;64.70
76607;DHT22;65498;50.916;4.698;2023-05-07T12:02:31;22.10;64.80
76607;DHT22;65498;50.916;4.698;2023-05-07T12:05:00;22.20;64.90
76607;DHT22;65498;50.916;4.698;2023-05-07T12:07:29;22.10;64.80
76607;DHT22;65498;50.916;4.698;2023-05-07T12:09:58;22.20;64.80
76607;DHT22;65498;50.916;4.698;2023-05-07T12:12:25;22.20;64.70
76607;DHT22;65498;50.916;4.698;2023-05-07T12:14:53;22.20;64.60
76607;DHT22;65498;50.916;4.698;2023-05-07T12:17:21;22.20;64.60
76607;DHT22;65498;50.916;4.698;2023-05-07T12:19:49;22.20;64.50
76607;DHT22;65498;50.916;4.698;2023-05-07T12:22:18;22.20;64.50
76607;DHT22;65498;50.916;4.698;2023-05-07T12:24:56;22.10;64.40
76607;DHT22;65498;50.916;4.698;2023-05-07T12:27:19;22.20;64.40
76607;DHT22;65498;50.916;4.698;2023-05-07T12:29:50;22.20;64.40
76607;DHT22;65498;50.916;4.698;2023-05-07T12:32:19;22.20;64.40
76607;DHT22;65498;50.916;4.698;2023-05-07T12:34:49;22.20;64.10
76607;DHT22;65498;50.916;4.698;2023-05-07T12:37:16;22.10;64.10
76607;DHT22;65498;50.916;4.698;2023-05-07T12:40:04;22.20;64.10
76607;DHT22;65498;50.916;4.698;2023-05-07T12:42:39;22.20;64.00
76607;DHT22;65498;50.916;4.698;2023-05-07T12:45:17;22.20;64.10
76607;DHT22;65498;50.916;4.698;2023-05-07T12:47:46;22.20;64.10
76607;DHT22;65498;50.916;4.698;2023-05-07T12:50:15;22.20;64.20
76607;DHT22;65498;50.916;4.698;2023-05-07T12:52:47;22.20;64.30
76607;DHT22;65498;50.916;4.698;2023-05-07T12:55:16;22.20;64.60
76607;DHT22;65498;50.916;4.698;2023-05-07T12:57:48;22.10;64.50
76607;DHT22;65498;50.916;4.698;2023-05-07T13:00:31;22.20;64.60
76607;DHT22;65498;50.916;4.698;2023-05-07T13:02:47;22.20;64.60
76607;DHT22;65498;50.916;4.698;2023-05-07T13:05:14;22.20;64.70
76607;DHT22;65498;50.916;4.698;2023-05-07T13:07:52;22.20;64.80
76607;DHT22;65498;50.916;4.698;2023-05-07T13:10:13;22.20;64.80
76607;DHT22;65498;50.916;4.698;2023-05-07T13:12:41;22.20;64.80
76607;DHT22;65498;50.916;4.698;2023-05-07T13:15:09;22.20;64.90
76607;DHT22;65498;50.916;4.698;2023-05-07T13:17:36;22.20;64.80
76607;DHT22;65498;50.916;4.698;2023-05-07T13:20:05;22.20;64.70
76607;DHT22;65498;50.916;4.698;2023-05-07T13:22:32;22.20;64.90
76607;DHT22;65498;50.916;4.698;2023-05-07T13:25:00;22.20;64.90
76607;DHT22;65498;50.916;4.698;2023-05-07T13:27:27;22.20;65.00
76607;DHT22;65498;50.916;4.698;2023-05-07T13:29:57;22.20;65.00
76607;DHT22;65498;50.916;4.698;2023-05-07T13:32:25;22.20;65.60
76607;DHT22;65498;50.916;4.698;2023-05-07T13:34:52;22.20;65.70
76607;DHT22;65498;50.916;4.698;2023-05-07T13:37:20;22.10;66.60
76607;DHT22;65498;50.916;4.698;2023-05-07T13:39:47;22.10;67.20
76607;DHT22;65498;50.916;4.698;2023-05-07T13:42:15;22.20;66.30
76607;DHT22;65498;50.916;4.698;2023-05-07T13:44:42;22.10;66.40
76607;DHT22;65498;50.916;4.698;2023-05-07T13:47:11;22.20;66.90
76607;DHT22;65498;50.916;4.698;2023-05-07T13:49:38;22.10;67.80
76607;DHT22;65498;50.916;4.698;2023-05-07T13:52:06;22.10;67.50
76607;DHT22;65498;50.916;4.698;2023-05-07T13:54:34;22.20;66.70
76607;DHT22;65498;50.916;4.698;2023-05-07T13:57:01;22.20;66.60
76607;DHT22;65498;50.916;4.698;2023-05-07T13:59:29;22.20;66.90
76607;DHT22;65498;50.916;4.698;2023-05-07T14:01:56;22.20;68.50
76607;DHT22;65498;50.916;4.698;2023-05-07T14:04:24;22.20;66.70
76607;DHT22;65498;50.916;4.698;2023-05-07T14:06:51;22.20;66.70
76607;DHT22;65498;50.916;4.698;2023-05-07T14:09:19;22.20;66.80
76607;DHT22;65498;50.916;4.698;2023-05-07T14:11:46;22.30;66.90
76607;DHT22;65498;50.916;4.698;2023-05-07T14:14:16;22.30;66.70
76607;DHT22;65498;50.916;4.698;2023-05-07T14:16:43;22.30;66.70
76607;DHT22;65498;50.916;4.698;2023-05-07T14:19:13;22.30;66.90
76607;DHT22;65498;50.916;4.698;2023-05-07T14:21:40;22.30;66.90
76607;DHT22;65498;50.916;4.698;2023-05-07T14:24:08;22.30;66.90
76607;DHT22;65498;50.916;4.698;2023-05-07T14:26:36;22.30;66.80
76607;DHT22;65498;50.916;4.698;2023-05-07T14:29:04;22.30;66.90
76607;DHT22;65498;50.916;4.698;2023-05-07T14:31:31;22.30;66.80
76607;DHT22;65498;50.916;4.698;2023-05-07T14:33:59;22.40;66.90
76607;DHT22;65498;50.916;4.698;2023-05-07T14:36:27;22.40;67.70
76607;DHT22;65498;50.916;4.698;2023-05-07T14:38:56;22.40;67.70
76607;DHT22;65498;50.916;4.698;2023-05-07T14:41:25;22.40;67.00
76607;DHT22;65498;50.916;4.698;2023-05-07T14:43:53;22.40;67.00
76607;DHT22;65498;50.916;4.698;2023-05-07T14:46:21;22.40;67.00
76607;DHT22;65498;50.916;4.698;2023-05-07T14:48:50;22.40;66.90
76607;DHT22;65498;50.916;4.698;2023-05-07T14:51:17;22.40;66.80
76607;DHT22;65498;50.916;4.698;2023-05-07T14:53:45;22.40;66.90
76607;DHT22;65498;50.916;4.698;2023-05-07T14:56:13;22.40;67.30
76607;DHT22;65498;50.916;4.698;2023-05-07T14:58:40;22.40;66.70
76607;DHT22;65498;50.916;4.698;2023-05-07T15:01:08;22.40;66.30
76607;DHT22;65498;50.916;4.698;2023-05-07T15:03:35;22.30;65.80
76607;DHT22;65498;50.916;4.698;2023-05-07T15:06:03;22.40;65.30
76607;DHT22;65498;50.916;4.698;2023-05-07T15:08:31;22.40;65.40
76607;DHT22;65498;50.916;4.698;2023-05-07T15:10:59;22.40;65.20
76607;DHT22;65498;50.916;4.698;2023-05-07T15:13:26;22.30;65.20
76607;DHT22;65498;50.916;4.698;2023-05-07T15:15:54;22.40;65.20
76607;DHT22;65498;50.916;4.698;2023-05-07T15:18:21;22.30;65.10
76607;DHT22;65498;50.916;4.698;2023-05-07T15:20:49;22.40;65.20
76607;DHT22;65498;50.916;4.698;2023-05-07T15:23:16;22.40;65.10
76607;DHT22;65498;50.916;4.698;2023-05-07T15:25:44;22.40;65.10
76607;DHT22;65498;50.916;4.698;2023-05-07T15:28:11;22.40;65.00
76607;DHT22;65498;50.916;4.698;2023-05-07T15:30:39;22.40;65.00
76607;DHT22;65498;50.916;4.698;2023-05-07T15:33:06;22.40;65.10
76607;DHT22;65498;50.916;4.698;2023-05-07T15:35:34;22.40;64.90
76607;DHT22;65498;50.916;4.698;2023-05-07T15:38:01;22.40;64.90
76607;DHT22;65498;50.916;4.698;2023-05-07T15:40:30;22.40;64.70
76607;DHT22;65498;50.916;4.698;2023-05-07T15:42:57;22.40;64.80
76607;DHT22;65498;50.916;4.698;2023-05-07T15:45:25;22.40;64.80
76607;DHT22;65498;50.916;4.698;2023-05-07T15:47:52;22.40;64.70
76607;DHT22;65498;50.916;4.698;2023-05-07T15:50:20;22.40;64.60